Time;durP1;ratioP1;P1;durP2;ratioP2;P2;SDS_P1;SDS_P2;PMS_P1;PMS_P2;Temp;Humidity;BMP_temperature;BMP_pressure;BME280_temperature;BME280_humidity;BME280_pressure;Samples;Min_cycle;Max_cycle;Signal;HPM_P1;HPM_P2
2023/09/12 00:01:34;;;;;;;11.82;10.38;;;;;;;;;;5035166;28;20025;-58
2023/09/12 00:04:00;;;;;;;11.65;10.55;;;;;;;;;;5035133;28;20024;-58
2023/09/12 00:06:26;;;;;;;11.82;10.30;;;;;;;;;;5017290;28;20140;-59
2023/09/12 00:08:52;;;;;;;11.18;9.45;;;;;;;;;;5034992;28;20013;-58
2023/09/12 00:11:18;;;;;;;14.95;11.07;;;;;;;;;;5035002;28;20040;-59
2023/09/12 00:13:44;;;;;;;10.88;9.85;;;;;;;;;;5034812;28;20029;-59
2023/09/12 00:16:11;;;;;;;11.80;10.70;;;;;;;;;;5034873;28;20356;-59
2023/09/12 00:18:39;;;;;;;12.25;10.07;;;;;;;;;;5035197;28;20378;-59
2023/09/12 00:21:05;;;;;;;11.55;10.45;;;;;;;;;;5017009;28;20136;-59
2023/09/12 00:23:31;;;;;;;12.90;11.60;;;;;;;;;;5034731;28;20596;-59
2023/09/12 00:25:58;;;;;;;13.70;12.10;;;;;;;;;;5034525;28;20017;-57
2023/09/12 00:28:24;;;;;;;15.60;13.80;;;;;;;;;;5034583;28;20246;-57
2023/09/12 00:30:50;;;;;;;15.73;12.77;;;;;;;;;;5034334;28;20030;-57
2023/09/12 00:33:16;;;;;;;17.00;15.38;;;;;;;;;;5034371;28;20044;-57
2023/09/12 00:35:42;;;;;;;16.20;14.50;;;;;;;;;;5034321;28;20087;-57
2023/09/12 00:38:09;;;;;;;17.35;15.75;;;;;;;;;;5034168;28;20022;-57
2023/09/12 00:40:35;;;;;;;17.20;15.50;;;;;;;;;;5016440;28;20387;-57
2023/09/12 00:43:01;;;;;;;18.33;16.45;;;;;;;;;;5033972;28;20021;-56
2023/09/12 00:45:27;;;;;;;23.90;18.85;;;;;;;;;;5034310;28;20039;-56
2023/09/12 00:47:53;;;;;;;21.05;18.92;;;;;;;;;;5034375;28;20099;-56
2023/09/12 00:50:21;;;;;;;19.67;17.75;;;;;;;;;;5033278;28;20021;-57
2023/09/12 00:52:47;;;;;;;20.88;18.80;;;;;;;;;;5034399;28;20037;-58
2023/09/12 00:55:14;;;;;;;20.17;18.30;;;;;;;;;;5033418;28;20025;-58
2023/09/12 00:57:40;;;;;;;21.10;19.10;;;;;;;;;;5033941;28;20025;-57
2023/09/12 01:00:11;;;;;;;20.23;18.08;;;;;;;;;;5034139;28;20082;-58
2023/09/12 01:02:38;;;;;;;19.70;17.67;;;;;;;;;;5034036;28;20095;-58
2023/09/12 01:05:04;;;;;;;23.48;19.52;;;;;;;;;;5033812;28;20048;-58
2023/09/12 01:07:30;;;;;;;22.75;20.50;;;;;;;;;;5033354;28;20025;-56
2023/09/12 01:09:56;;;;;;;22.90;20.52;;;;;;;;;;5033092;28;20034;-57
2023/09/12 01:12:22;;;;;;;21.30;19.25;;;;;;;;;;5032858;28;20447;-57
2023/09/12 01:14:49;;;;;;;20.08;18.17;;;;;;;;;;5032921;28;20029;-57
2023/09/12 01:17:15;;;;;;;21.30;18.55;;;;;;;;;;5032934;28;20025;-57
2023/09/12 01:19:41;;;;;;;19.63;17.63;;;;;;;;;;5032853;28;20053;-57
2023/09/12 01:22:28;;;;;;;17.08;15.48;;;;;;;;;;5030426;28;20499;-56
2023/09/12 01:25:01;;;;;;;18.45;16.65;;;;;;;;;;5031230;28;20159;-59
2023/09/12 01:27:54;;;;;;;21.20;17.05;;;;;;;;;;5013164;28;20105;-56
2023/09/12 01:30:23;;;;;;;17.30;15.70;;;;;;;;;;5026754;28;20484;-57
2023/09/12 01:32:50;;;;;;;17.98;16.08;;;;;;;;;;5030730;28;20033;-57
2023/09/12 01:35:16;;;;;;;17.15;15.43;;;;;;;;;;5031746;28;20548;-56
2023/09/12 01:37:42;;;;;;;16.55;15.00;;;;;;;;;;5032336;28;20033;-57
2023/09/12 01:40:08;;;;;;;17.75;16.05;;;;;;;;;;5032121;28;20030;-57
2023/09/12 01:42:38;;;;;;;15.90;14.30;;;;;;;;;;5031833;28;20037;-57
2023/09/12 01:45:05;;;;;;;19.95;17.23;;;;;;;;;;5032357;28;20024;-57
2023/09/12 01:47:51;;;;;;;20.70;18.02;;;;;;;;;;5032363;28;20025;-57
2023/09/12 01:50:17;;;;;;;21.25;19.05;;;;;;;;;;5031560;28;20032;-57
2023/09/12 01:52:43;;;;;;;22.27;19.90;;;;;;;;;;5032256;28;20037;-57
2023/09/12 01:55:10;;;;;;;22.63;20.48;;;;;;;;;;5032425;28;20044;-57
2023/09/12 01:57:37;;;;;;;21.00;18.90;;;;;;;;;;5014556;28;20055;-57
2023/09/12 02:00:03;;;;;;;23.17;20.63;;;;;;;;;;5032237;28;20026;-57
2023/09/12 02:02:29;;;;;;;22.83;20.58;;;;;;;;;;5032245;28;20111;-57
2023/09/12 02:05:10;;;;;;;23.40;20.95;;;;;;;;;;5013956;28;20052;-57
2023/09/12 02:07:37;;;;;;;22.23;20.13;;;;;;;;;;5032273;28;20486;-57
2023/09/12 02:10:04;;;;;;;24.63;22.17;;;;;;;;;;5032605;28;20014;-56
2023/09/12 02:12:30;;;;;;;25.67;23.08;;;;;;;;;;5014773;28;20037;-57
2023/09/12 02:14:56;;;;;;;26.10;23.23;;;;;;;;;;5032498;28;20033;-56
2023/09/12 02:17:24;;;;;;;27.60;24.63;;;;;;;;;;5032693;28;20040;-57
2023/09/12 02:19:50;;;;;;;26.90;24.02;;;;;;;;;;5032545;28;20072;-57
2023/09/12 02:22:16;;;;;;;26.52;23.92;;;;;;;;;;5032408;28;20042;-57
2023/09/12 02:24:42;;;;;;;27.30;24.45;;;;;;;;;;5031246;28;20501;-57
2023/09/12 02:27:08;;;;;;;28.50;25.45;;;;;;;;;;5023803;28;20100;-56
2023/09/12 02:29:34;;;;;;;26.85;24.35;;;;;;;;;;5026482;28;20025;-57
2023/09/12 02:32:00;;;;;;;26.02;23.52;;;;;;;;;;5030434;28;20120;-58
2023/09/12 02:34:26;;;;;;;26.35;23.75;;;;;;;;;;5031290;28;20017;-58
2023/09/12 02:36:53;;;;;;;27.60;24.55;;;;;;;;;;5032449;28;20033;-58
2023/09/12 02:39:19;;;;;;;27.08;24.23;;;;;;;;;;5032187;28;20083;-57
2023/09/12 02:41:45;;;;;;;27.85;25.20;;;;;;;;;;5032086;28;20037;-58
2023/09/12 02:44:11;;;;;;;26.92;24.23;;;;;;;;;;5032131;28;20400;-57
2023/09/12 02:46:37;;;;;;;27.55;24.42;;;;;;;;;;5032315;28;20025;-57
2023/09/12 02:49:03;;;;;;;26.85;24.15;;;;;;;;;;5032125;28;20048;-58
2023/09/12 02:51:29;;;;;;;26.98;24.33;;;;;;;;;;5031870;28;20025;-58
2023/09/12 02:53:55;;;;;;;27.70;24.83;;;;;;;;;;5031984;28;20088;-57
2023/09/12 02:56:21;;;;;;;26.90;24.20;;;;;;;;;;5031970;28;20018;-58
2023/09/12 02:58:48;;;;;;;27.30;24.38;;;;;;;;;;5031881;28;20356;-58
2023/09/12 03:01:17;;;;;;;28.40;25.67;;;;;;;;;;5031721;28;20045;-57
2023/09/12 03:03:44;;;;;;;28.95;26.02;;;;;;;;;;5031989;28;20029;-57
2023/09/12 03:06:10;;;;;;;29.65;26.60;;;;;;;;;;5031678;28;20095;-58
2023/09/12 03:08:36;;;;;;;29.75;26.75;;;;;;;;;;5031721;28;20032;-58
2023/09/12 03:11:02;;;;;;;28.50;25.63;;;;;;;;;;5031585;28;20025;-58
2023/09/12 03:13:28;;;;;;;28.08;25.35;;;;;;;;;;5031643;28;20021;-58
2023/09/12 03:15:54;;;;;;;28.75;24.65;;;;;;;;;;5031743;28;20025;-58
2023/09/12 03:18:20;;;;;;;27.40;24.60;;;;;;;;;;5031437;28;20029;-57
2023/09/12 03:20:46;;;;;;;27.83;24.75;;;;;;;;;;5031607;28;20530;-58
2023/09/12 03:23:12;;;;;;;28.95;26.02;;;;;;;;;;5013840;28;20044;-58
2023/09/12 03:25:39;;;;;;;29.42;26.45;;;;;;;;;;5031770;28;20030;-57
2023/09/12 03:28:06;;;;;;;31.10;28.05;;;;;;;;;;5031496;28;20027;-58
2023/09/12 03:30:33;;;;;;;30.70;26.77;;;;;;;;;;5031535;28;20025;-57
2023/09/12 03:32:59;;;;;;;30.90;27.75;;;;;;;;;;5031291;28;20038;-57
2023/09/12 03:35:25;;;;;;;35.22;29.63;;;;;;;;;;5031295;28;20028;-58
2023/09/12 03:37:51;;;;;;;33.42;28.55;;;;;;;;;;5031645;28;20121;-57
2023/09/12 03:40:17;;;;;;;31.17;28.10;;;;;;;;;;5031576;28;20475;-57
2023/09/12 03:42:43;;;;;;;31.55;28.33;;;;;;;;;;5031233;28;20030;-58
2023/09/12 03:45:10;;;;;;;30.73;27.63;;;;;;;;;;5031198;28;20025;-57
2023/09/12 03:47:36;;;;;;;33.22;28.90;;;;;;;;;;5031175;28;20485;-57
2023/09/12 03:50:02;;;;;;;36.22;32.58;;;;;;;;;;5031352;28;20022;-58
2023/09/12 03:52:28;;;;;;;41.08;36.88;;;;;;;;;;5031280;28;20120;-57
2023/09/12 03:54:54;;;;;;;41.53;37.17;;;;;;;;;;5031153;28;20486;-57
2023/09/12 03:57:20;;;;;;;39.90;35.88;;;;;;;;;;5031135;28;20053;-57
2023/09/12 03:59:46;;;;;;;39.58;35.17;;;;;;;;;;5031354;28;20133;-56
2023/09/12 04:02:12;;;;;;;40.20;35.83;;;;;;;;;;5013417;28;20040;-56
2023/09/12 04:04:39;;;;;;;39.78;35.58;;;;;;;;;;5031346;28;20021;-57
2023/09/12 04:07:05;;;;;;;37.88;34.10;;;;;;;;;;5031434;28;20134;-57
2023/09/12 04:09:31;;;;;;;38.92;34.70;;;;;;;;;;5031121;28;20471;-57
2023/09/12 04:11:57;;;;;;;43.45;34.97;;;;;;;;;;5031042;28;20459;-58
2023/09/12 04:14:23;;;;;;;37.58;33.63;;;;;;;;;;5031147;28;20093;-57
2023/09/12 04:16:49;;;;;;;38.45;34.42;;;;;;;;;;5031404;28;20445;-57
2023/09/12 04:19:15;;;;;;;37.85;33.97;;;;;;;;;;5031125;28;20505;-57
2023/09/12 04:21:41;;;;;;;37.50;33.35;;;;;;;;;;5031189;28;20077;-58
2023/09/12 04:24:08;;;;;;;35.53;32.03;;;;;;;;;;5023852;28;20025;-57
2023/09/12 04:26:34;;;;;;;36.10;32.22;;;;;;;;;;5030255;28;20052;-56
2023/09/12 04:29:00;;;;;;;37.78;33.80;;;;;;;;;;5031013;28;20036;-57
2023/09/12 04:31:26;;;;;;;34.95;31.45;;;;;;;;;;5032918;28;20060;-58
2023/09/12 04:33:52;;;;;;;34.55;30.60;;;;;;;;;;5031482;28;20099;-57
2023/09/12 04:36:19;;;;;;;33.35;29.95;;;;;;;;;;5034418;28;20068;-57
2023/09/12 04:38:45;;;;;;;35.85;31.08;;;;;;;;;;5034312;28;20483;-57
2023/09/12 04:41:14;;;;;;;35.05;31.63;;;;;;;;;;5034305;28;20079;-57
2023/09/12 04:43:50;;;;;;;35.47;31.73;;;;;;;;;;5034285;28;20048;-57
2023/09/12 04:46:16;;;;;;;34.78;31.15;;;;;;;;;;5034405;28;20471;-57
2023/09/12 04:48:43;;;;;;;36.15;32.33;;;;;;;;;;5034351;28;20033;-58
2023/09/12 04:51:09;;;;;;;33.97;30.30;;;;;;;;;;5034374;28;20029;-58
2023/09/12 04:53:35;;;;;;;33.55;30.05;;;;;;;;;;5034364;28;20057;-58
2023/09/12 04:56:02;;;;;;;33.78;30.35;;;;;;;;;;5034295;28;20029;-57
2023/09/12 04:58:28;;;;;;;38.80;30.88;;;;;;;;;;5034188;28;20030;-58
2023/09/12 05:00:55;;;;;;;34.90;31.38;;;;;;;;;;5034097;28;20097;-58
2023/09/12 05:03:21;;;;;;;33.25;30.05;;;;;;;;;;5016208;28;20073;-58
2023/09/12 05:05:48;;;;;;;35.13;31.55;;;;;;;;;;5033969;28;20391;-58
2023/09/12 05:08:14;;;;;;;31.75;28.55;;;;;;;;;;5033390;28;20036;-58
2023/09/12 05:10:40;;;;;;;33.38;30.02;;;;;;;;;;5015944;28;20073;-58
2023/09/12 05:13:06;;;;;;;37.80;31.98;;;;;;;;;;5033694;28;20029;-58
2023/09/12 05:15:32;;;;;;;36.58;32.78;;;;;;;;;;5033924;28;20382;-58
2023/09/12 05:17:58;;;;;;;39.60;34.40;;;;;;;;;;5033695;28;20087;-57
2023/09/12 05:20:24;;;;;;;38.55;34.53;;;;;;;;;;5033445;28;20041;-57
2023/09/12 05:22:50;;;;;;;38.50;34.63;;;;;;;;;;5015573;28;20060;-58
2023/09/12 05:25:16;;;;;;;38.85;34.72;;;;;;;;;;5033462;28;20017;-58
2023/09/12 05:27:42;;;;;;;39.33;35.03;;;;;;;;;;5015482;28;20026;-57
2023/09/12 05:30:08;;;;;;;40.80;36.75;;;;;;;;;;5033427;28;20094;-57
2023/09/12 05:32:34;;;;;;;39.10;35.17;;;;;;;;;;5021427;28;20050;-57
2023/09/12 05:35:00;;;;;;;41.45;37.10;;;;;;;;;;5033304;28;20022;-57
2023/09/12 05:37:26;;;;;;;42.88;38.38;;;;;;;;;;5033177;28;20060;-58
2023/09/12 05:39:52;;;;;;;40.10;35.90;;;;;;;;;;5033368;28;20017;-57
2023/09/12 05:42:20;;;;;;;42.53;38.05;;;;;;;;;;5032837;28;20371;-58
2023/09/12 05:44:48;;;;;;;43.15;38.35;;;;;;;;;;5033438;28;20424;-58
2023/09/12 05:47:15;;;;;;;45.45;40.60;;;;;;;;;;5033004;28;20501;-56
2023/09/12 05:49:41;;;;;;;46.53;41.72;;;;;;;;;;5031768;28;20017;-58
2023/09/12 05:52:07;;;;;;;49.10;41.60;;;;;;;;;;5030322;28;20043;-58
2023/09/12 05:54:33;;;;;;;45.00;40.17;;;;;;;;;;5012715;28;20421;-56
2023/09/12 05:56:59;;;;;;;45.15;40.22;;;;;;;;;;5029649;28;20515;-58
2023/09/12 05:59:25;;;;;;;44.95;40.25;;;;;;;;;;5032571;28;20030;-58
2023/09/12 06:01:52;;;;;;;45.00;40.33;;;;;;;;;;5032673;28;20467;-58
2023/09/12 06:04:18;;;;;;;46.40;41.40;;;;;;;;;;5032889;28;20420;-58
2023/09/12 06:06:45;;;;;;;44.70;40.00;;;;;;;;;;5032539;28;20053;-58
2023/09/12 06:09:11;;;;;;;47.35;41.78;;;;;;;;;;5032786;28;20026;-58
2023/09/12 06:11:37;;;;;;;47.20;41.78;;;;;;;;;;5032376;28;20033;-57
2023/09/12 06:14:03;;;;;;;47.22;40.55;;;;;;;;;;5032433;28;20348;-58
2023/09/12 06:16:29;;;;;;;47.60;42.45;;;;;;;;;;5032569;28;20025;-57
2023/09/12 06:18:55;;;;;;;46.78;41.63;;;;;;;;;;5032576;28;20026;-57
2023/09/12 06:21:21;;;;;;;49.80;43.10;;;;;;;;;;5032229;28;20499;-57
2023/09/12 06:23:48;;;;;;;48.17;43.03;;;;;;;;;;5032364;28;20483;-58
2023/09/12 06:26:14;;;;;;;46.28;41.53;;;;;;;;;;5032338;28;20211;-58
2023/09/12 06:28:40;;;;;;;40.58;35.03;;;;;;;;;;5014440;28;20060;-58
2023/09/12 06:31:09;;;;;;;47.88;39.72;;;;;;;;;;5032309;28;20382;-57
2023/09/12 06:33:35;;;;;;;46.70;40.75;;;;;;;;;;5014550;28;20123;-57
2023/09/12 06:36:02;;;;;;;53.45;43.45;;;;;;;;;;5032480;28;20419;-58
2023/09/12 06:38:28;;;;;;;51.67;43.50;;;;;;;;;;5032087;28;20022;-58
2023/09/12 06:40:55;;;;;;;48.00;41.33;;;;;;;;;;5031936;28;20120;-58
2023/09/12 06:43:21;;;;;;;48.17;42.97;;;;;;;;;;5031981;28;20025;-58
2023/09/12 06:45:48;;;;;;;50.78;44.35;;;;;;;;;;5032073;28;20439;-58
2023/09/12 06:48:14;;;;;;;49.63;43.00;;;;;;;;;;5014279;28;20022;-57
2023/09/12 06:50:40;;;;;;;45.83;40.85;;;;;;;;;;5032240;28;20029;-57
2023/09/12 06:53:07;;;;;;;48.88;43.60;;;;;;;;;;5031219;28;20116;-58
2023/09/12 06:55:33;;;;;;;48.90;42.85;;;;;;;;;;5031845;28;20029;-58
2023/09/12 06:57:59;;;;;;;47.40;41.78;;;;;;;;;;5000470;28;20388;-58
2023/09/12 07:00:26;;;;;;;51.30;44.45;;;;;;;;;;5031850;28;20032;-58
2023/09/12 07:02:52;;;;;;;51.42;44.90;;;;;;;;;;5031908;28;20475;-58
2023/09/12 07:05:18;;;;;;;50.17;44.85;;;;;;;;;;5031603;28;20022;-58
2023/09/12 07:07:44;;;;;;;47.92;42.30;;;;;;;;;;5031817;28;20087;-58
2023/09/12 07:10:11;;;;;;;49.17;43.78;;;;;;;;;;5031627;28;20029;-58
2023/09/12 07:12:37;;;;;;;53.45;46.25;;;;;;;;;;5031249;28;20030;-57
2023/09/12 07:15:03;;;;;;;51.58;45.53;;;;;;;;;;5031317;28;20028;-58
2023/09/12 07:17:29;;;;;;;50.80;45.28;;;;;;;;;;5013804;28;20471;-58
2023/09/12 07:19:55;;;;;;;58.80;47.97;;;;;;;;;;5031579;28;20040;-57
2023/09/12 07:22:21;;;;;;;53.25;45.00;;;;;;;;;;5031311;28;20049;-58
2023/09/12 07:24:49;;;;;;;54.20;45.38;;;;;;;;;;5031389;28;20119;-58
2023/09/12 07:27:15;;;;;;;48.60;43.35;;;;;;;;;;5031347;28;20022;-58
2023/09/12 07:29:41;;;;;;;45.90;40.38;;;;;;;;;;5013503;28;20380;-58
2023/09/12 07:32:07;;;;;;;48.17;40.47;;;;;;;;;;5031545;28;20430;-58
2023/09/12 07:34:33;;;;;;;47.05;42.05;;;;;;;;;;5013559;28;20025;-58
2023/09/12 07:36:59;;;;;;;45.15;40.45;;;;;;;;;;5031316;28;20029;-57
2023/09/12 07:39:25;;;;;;;45.13;40.30;;;;;;;;;;5013847;28;20036;-57
2023/09/12 07:41:51;;;;;;;46.08;41.08;;;;;;;;;;5031058;28;20030;-58
2023/09/12 07:44:17;;;;;;;52.67;43.28;;;;;;;;;;5031285;28;20017;-58
2023/09/12 07:46:44;;;;;;;50.05;44.05;;;;;;;;;;5031273;28;20030;-58
2023/09/12 07:49:10;;;;;;;53.75;42.38;;;;;;;;;;5031236;28;20025;-57
2023/09/12 07:51:36;;;;;;;51.85;43.20;;;;;;;;;;5031158;28;20026;-58
2023/09/12 07:54:02;;;;;;;48.45;43.35;;;;;;;;;;5031165;28;20040;-58
2023/09/12 07:56:34;;;;;;;49.83;42.28;;;;;;;;;;5031213;28;20045;-57
2023/09/12 07:59:00;;;;;;;46.90;41.28;;;;;;;;;;5031133;28;20030;-57
2023/09/12 08:01:27;;;;;;;52.47;45.80;;;;;;;;;;5031240;28;20387;-58
2023/09/12 08:03:53;;;;;;;49.40;42.63;;;;;;;;;;5013270;28;20427;-58
2023/09/12 08:06:19;;;;;;;50.53;44.00;;;;;;;;;;5034223;28;20044;-58
2023/09/12 08:08:45;;;;;;;46.38;41.05;;;;;;;;;;5031526;28;20025;-58
2023/09/12 08:11:11;;;;;;;46.22;41.08;;;;;;;;;;5035126;28;20029;-58
2023/09/12 08:13:37;;;;;;;44.60;39.85;;;;;;;;;;5034688;28;20116;-58
2023/09/12 08:16:03;;;;;;;47.55;42.05;;;;;;;;;;5034667;28;20036;-58
2023/09/12 08:18:32;;;;;;;50.95;45.45;;;;;;;;;;5034643;28;20022;-58
2023/09/12 08:20:58;;;;;;;49.35;43.67;;;;;;;;;;5034405;28;20072;-58
2023/09/12 08:23:24;;;;;;;47.95;43.15;;;;;;;;;;5034596;28;20033;-57
2023/09/12 08:25:50;;;;;;;47.20;42.10;;;;;;;;;;5034562;28;20052;-58
2023/09/12 08:28:16;;;;;;;53.42;44.00;;;;;;;;;;5034671;28;20082;-57
2023/09/12 08:30:44;;;;;;;50.22;44.97;;;;;;;;;;5034497;28;20150;-58
2023/09/12 08:33:10;;;;;;;50.17;44.88;;;;;;;;;;5034418;28;20045;-58
2023/09/12 08:35:36;;;;;;;51.17;45.85;;;;;;;;;;5034419;28;20026;-58
2023/09/12 08:38:02;;;;;;;51.85;46.17;;;;;;;;;;5034674;28;20018;-58
2023/09/12 08:40:30;;;;;;;55.00;45.17;;;;;;;;;;5034220;28;20442;-57
2023/09/12 08:42:57;;;;;;;51.33;45.83;;;;;;;;;;5034314;28;20033;-58
2023/09/12 08:45:23;;;;;;;48.42;43.42;;;;;;;;;;5034396;28;20026;-57
2023/09/12 08:47:53;;;;;;;51.10;41.63;;;;;;;;;;5034199;28;20091;-58
2023/09/12 08:50:20;;;;;;;47.75;42.63;;;;;;;;;;5034173;28;20380;-57
2023/09/12 08:52:47;;;;;;;46.05;41.20;;;;;;;;;;5033875;28;20068;-57
2023/09/12 08:55:14;;;;;;;46.85;41.33;;;;;;;;;;5016100;28;20211;-57
2023/09/12 08:57:41;;;;;;;44.40;39.80;;;;;;;;;;5033896;28;20049;-56
2023/09/12 09:00:14;;;;;;;45.92;39.35;;;;;;;;;;5016082;28;20032;-57
2023/09/12 09:02:41;;;;;;;46.05;41.17;;;;;;;;;;5033853;28;20028;-57
2023/09/12 09:05:08;;;;;;;45.05;40.15;;;;;;;;;;5033826;28;20504;-56
2023/09/12 09:07:38;;;;;;;41.00;36.65;;;;;;;;;;5033759;28;20116;-56
2023/09/12 09:10:06;;;;;;;30.13;26.65;;;;;;;;;;5033814;28;20088;-56
2023/09/12 09:12:32;;;;;;;29.00;25.13;;;;;;;;;;5033522;28;20040;-55
2023/09/12 09:14:59;;;;;;;30.05;25.80;;;;;;;;;;5032854;28;20925;-57
2023/09/12 09:17:25;;;;;;;26.45;23.70;;;;;;;;;;5029706;28;20029;-56
2023/09/12 09:19:51;;;;;;;27.33;24.52;;;;;;;;;;5030772;28;20162;-55
2023/09/12 09:22:17;;;;;;;22.85;20.50;;;;;;;;;;5030239;28;20056;-55
2023/09/12 09:24:43;;;;;;;22.85;20.33;;;;;;;;;;5032062;28;20064;-56
2023/09/12 09:27:09;;;;;;;21.35;19.10;;;;;;;;;;5033319;28;20021;-56
2023/09/12 09:29:48;;;;;;;23.02;19.35;;;;;;;;;;5033382;28;20018;-56
2023/09/12 09:32:18;;;;;;;20.55;16.50;;;;;;;;;;5015373;28;20041;-57
2023/09/12 09:34:44;;;;;;;16.75;14.88;;;;;;;;;;5033177;28;20096;-57
2023/09/12 09:37:10;;;;;;;14.32;12.82;;;;;;;;;;5033198;28;20029;-57
2023/09/12 09:39:36;;;;;;;13.63;12.27;;;;;;;;;;5033182;28;20063;-57
2023/09/12 09:42:02;;;;;;;14.35;11.65;;;;;;;;;;5033143;28;20518;-57
2023/09/12 09:44:30;;;;;;;12.20;10.90;;;;;;;;;;5033032;28;20025;-57
2023/09/12 09:47:02;;;;;;;13.38;10.90;;;;;;;;;;5032949;28;20075;-55
2023/09/12 09:49:28;;;;;;;12.57;11.02;;;;;;;;;;5033103;28;20091;-55
2023/09/12 09:51:57;;;;;;;12.65;11.45;;;;;;;;;;5032841;28;20056;-56
2023/09/12 09:54:25;;;;;;;10.93;9.65;;;;;;;;;;5032946;28;20032;-57
2023/09/12 09:56:54;;;;;;;11.23;10.18;;;;;;;;;;5032822;28;20028;-57
2023/09/12 09:59:24;;;;;;;13.32;11.10;;;;;;;;;;5032768;28;20128;-57
2023/09/12 10:01:51;;;;;;;12.43;11.02;;;;;;;;;;5032650;28;20071;-57
2023/09/12 10:04:18;;;;;;;11.38;10.25;;;;;;;;;;5023559;28;20064;-56
2023/09/12 10:06:45;;;;;;;11.70;10.60;;;;;;;;;;5032646;28;20044;-57
2023/09/12 10:09:12;;;;;;;15.13;11.63;;;;;;;;;;5032692;28;20479;-55
2023/09/12 10:11:39;;;;;;;14.02;12.52;;;;;;;;;;5032548;28;20029;-54
2023/09/12 10:14:05;;;;;;;14.02;11.65;;;;;;;;;;5032647;28;20025;-54
2023/09/12 10:16:35;;;;;;;16.10;11.98;;;;;;;;;;5032372;28;20053;-56
2023/09/12 10:19:07;;;;;;;17.30;10.90;;;;;;;;;;5032429;28;20030;-56
2023/09/12 10:21:34;;;;;;;13.45;11.10;;;;;;;;;;5032389;28;20042;-57
2023/09/12 10:24:03;;;;;;;12.07;10.90;;;;;;;;;;5032356;28;20033;-57
2023/09/12 10:26:31;;;;;;;12.80;11.48;;;;;;;;;;5014613;28;20026;-57
2023/09/12 10:28:58;;;;;;;12.65;11.45;;;;;;;;;;5031388;28;20363;-57
2023/09/12 10:31:25;;;;;;;12.18;10.95;;;;;;;;;;5021005;28;20041;-56
2023/09/12 10:33:51;;;;;;;11.55;10.38;;;;;;;;;;5032234;28;20072;-57
2023/09/12 10:36:19;;;;;;;11.85;10.15;;;;;;;;;;5031942;28;20079;-57
2023/09/12 10:38:47;;;;;;;11.10;10.05;;;;;;;;;;5031969;28;20030;-57
2023/09/12 10:41:14;;;;;;;11.45;10.27;;;;;;;;;;5031971;28;20091;-58
2023/09/12 10:43:41;;;;;;;14.25;9.88;;;;;;;;;;5031916;28;20013;-56
2023/09/12 10:46:07;;;;;;;13.35;11.73;;;;;;;;;;5031836;28;20079;-56
2023/09/12 10:48:35;;;;;;;15.02;10.48;;;;;;;;;;5032196;28;20024;-57
2023/09/12 10:51:03;;;;;;;11.55;9.93;;;;;;;;;;5032192;28;20026;-57
2023/09/12 10:53:30;;;;;;;11.30;10.30;;;;;;;;;;5017905;28;20048;-55
2023/09/12 10:56:09;;;;;;;11.68;10.48;;;;;;;;;;5031790;28;20029;-57
2023/09/12 10:58:54;;;;;;;11.00;9.98;;;;;;;;;;5031674;28;20328;-57
2023/09/12 11:01:26;;;;;;;11.60;10.45;;;;;;;;;;5031620;28;20025;-57
2023/09/12 11:03:52;;;;;;;12.02;10.77;;;;;;;;;;5031860;28;20032;-57
2023/09/12 11:06:22;;;;;;;11.48;9.20;;;;;;;;;;5031711;28;20021;-56
2023/09/12 11:09:07;;;;;;;10.35;9.02;;;;;;;;;;5031583;28;20021;-57
2023/09/12 11:11:33;;;;;;;10.55;9.43;;;;;;;;;;5031614;28;20090;-56
2023/09/12 11:14:06;;;;;;;10.73;9.73;;;;;;;;;;5031412;28;20045;-56
2023/09/12 11:16:33;;;;;;;10.85;9.82;;;;;;;;;;5031670;28;20021;-57
2023/09/12 11:19:23;;;;;;;14.68;9.70;;;;;;;;;;5031902;28;20383;-56
2023/09/12 11:22:08;;;;;;;12.27;10.27;;;;;;;;;;5031405;28;20375;-56
2023/09/12 11:24:44;;;;;;;10.60;9.57;;;;;;;;;;5031664;28;20051;-57
2023/09/12 11:27:10;;;;;;;9.93;8.93;;;;;;;;;;5031649;28;20398;-57
2023/09/12 11:29:37;;;;;;;9.75;8.90;;;;;;;;;;5013764;28;20053;-56
2023/09/12 11:32:25;;;;;;;11.25;8.90;;;;;;;;;;5028171;28;20057;-57
2023/09/12 11:34:51;;;;;;;9.98;9.07;;;;;;;;;;5031285;28;20521;-57
2023/09/12 11:37:27;;;;;;;11.25;8.35;;;;;;;;;;5031122;28;20026;-57
2023/09/12 11:39:54;;;;;;;10.55;9.45;;;;;;;;;;5032673;28;20382;-56
2023/09/12 11:42:25;;;;;;;9.82;8.85;;;;;;;;;;5035325;28;20083;-56
2023/09/12 11:44:52;;;;;;;11.77;8.25;;;;;;;;;;5035540;28;20018;-57
2023/09/12 11:47:18;;;;;;;9.13;8.20;;;;;;;;;;5035373;28;20475;-57
2023/09/12 11:49:44;;;;;;;11.40;8.35;;;;;;;;;;5035425;28;20028;-57
2023/09/12 11:52:12;;;;;;;8.63;7.70;;;;;;;;;;5035393;28;20506;-55
2023/09/12 11:54:39;;;;;;;9.50;7.97;;;;;;;;;;5017442;28;20332;-57
2023/09/12 11:57:07;;;;;;;8.25;7.45;;;;;;;;;;5034943;28;20128;-56
2023/09/12 11:59:35;;;;;;;8.18;7.43;;;;;;;;;;5034866;28;20033;-57
2023/09/12 12:02:01;;;;;;;10.02;8.02;;;;;;;;;;5035107;28;20080;-57
2023/09/12 12:04:27;;;;;;;9.13;7.80;;;;;;;;;;5034986;28;20061;-58
2023/09/12 12:06:53;;;;;;;8.35;7.55;;;;;;;;;;5034735;28;20393;-56
2023/09/12 12:09:19;;;;;;;8.57;7.60;;;;;;;;;;5017104;28;20025;-58
2023/09/12 12:11:48;;;;;;;7.15;6.53;;;;;;;;;;5034741;28;20033;-57
2023/09/12 12:14:15;;;;;;;7.57;6.93;;;;;;;;;;5034874;28;20034;-57
2023/09/12 12:16:45;;;;;;;10.52;8.00;;;;;;;;;;5016996;28;20037;-58
2023/09/12 12:19:11;;;;;;;7.82;7.25;;;;;;;;;;5034792;28;20034;-54
2023/09/12 12:21:46;;;;;;;8.18;7.35;;;;;;;;;;5035040;28;20037;-57
2023/09/12 12:24:14;;;;;;;8.18;7.47;;;;;;;;;;5032228;28;20071;-57
2023/09/12 12:26:46;;;;;;;9.07;7.90;;;;;;;;;;5026056;28;20028;-56
2023/09/12 12:29:13;;;;;;;7.90;7.20;;;;;;;;;;5034330;28;20036;-57
2023/09/12 12:31:39;;;;;;;7.85;7.15;;;;;;;;;;5034555;28;20030;-57
2023/09/12 12:34:05;;;;;;;7.20;6.50;;;;;;;;;;5022572;28;20431;-57
2023/09/12 12:36:32;;;;;;;8.38;7.57;;;;;;;;;;5034499;28;20022;-57
2023/09/12 12:38:58;;;;;;;8.52;7.82;;;;;;;;;;5034734;28;20116;-57
2023/09/12 12:41:25;;;;;;;11.20;7.50;;;;;;;;;;5030654;28;20526;-56
2023/09/12 12:43:52;;;;;;;8.30;7.47;;;;;;;;;;5031907;28;20021;-57
2023/09/12 12:46:21;;;;;;;7.65;6.95;;;;;;;;;;5030093;28;20017;-57
2023/09/12 12:48:48;;;;;;;9.45;7.43;;;;;;;;;;5015532;28;20143;-57
2023/09/12 12:51:24;;;;;;;7.32;6.65;;;;;;;;;;5011563;28;20092;-57
2023/09/12 12:53:51;;;;;;;7.10;6.40;;;;;;;;;;5034158;28;20116;-57
2023/09/12 12:56:22;;;;;;;8.23;7.45;;;;;;;;;;5033962;28;20040;-56
2023/09/12 12:58:58;;;;;;;7.55;6.82;;;;;;;;;;5034095;28;20025;-57
2023/09/12 13:01:24;;;;;;;7.63;6.93;;;;;;;;;;5034122;28;20021;-57
2023/09/12 13:03:51;;;;;;;8.27;7.35;;;;;;;;;;5033811;28;20026;-58
2023/09/12 13:06:19;;;;;;;8.85;6.63;;;;;;;;;;5020360;28;20018;-58
2023/09/12 13:08:46;;;;;;;7.13;6.63;;;;;;;;;;5020103;28;20017;-57
2023/09/12 13:11:12;;;;;;;8.00;7.30;;;;;;;;;;5033863;28;20112;-57
2023/09/12 13:13:39;;;;;;;9.15;7.93;;;;;;;;;;5033815;28;20034;-57
2023/09/12 13:16:06;;;;;;;8.93;8.02;;;;;;;;;;5034212;28;20025;-57
2023/09/12 13:18:33;;;;;;;8.65;7.43;;;;;;;;;;5033634;28;20021;-58
2023/09/12 13:20:59;;;;;;;8.65;7.35;;;;;;;;;;5033706;28;20351;-57
2023/09/12 13:23:24;;;;;;;8.25;7.57;;;;;;;;;;5033640;28;20018;-58
2023/09/12 13:25:51;;;;;;;9.20;8.30;;;;;;;;;;5033922;28;20025;-58
2023/09/12 13:28:17;;;;;;;8.77;7.82;;;;;;;;;;5033722;28;20017;-57
2023/09/12 13:30:44;;;;;;;8.77;7.97;;;;;;;;;;5033691;28;20524;-57
2023/09/12 13:33:10;;;;;;;9.27;8.48;;;;;;;;;;5033925;28;20117;-58
2023/09/12 13:35:36;;;;;;;8.75;8.07;;;;;;;;;;5033580;28;20057;-58
2023/09/12 13:38:09;;;;;;;8.95;8.13;;;;;;;;;;5033580;28;20045;-58
2023/09/12 13:40:37;;;;;;;9.02;8.18;;;;;;;;;;5033474;28;20060;-58
2023/09/12 13:43:03;;;;;;;9.45;8.75;;;;;;;;;;5033105;28;20029;-58
2023/09/12 13:45:29;;;;;;;9.20;8.43;;;;;;;;;;5033217;28;20087;-58
2023/09/12 13:47:54;;;;;;;9.43;8.63;;;;;;;;;;5033228;28;20030;-58
2023/09/12 13:50:20;;;;;;;10.10;9.38;;;;;;;;;;5015191;28;20117;-58
2023/09/12 13:52:47;;;;;;;10.65;8.57;;;;;;;;;;5033146;28;20143;-58
2023/09/12 13:55:15;;;;;;;10.05;9.27;;;;;;;;;;5032937;28;20030;-58
2023/09/12 13:57:41;;;;;;;9.85;9.10;;;;;;;;;;5026004;28;20110;-58
2023/09/12 14:00:08;;;;;;;9.65;8.88;;;;;;;;;;5032929;28;20096;-58
2023/09/12 14:02:34;;;;;;;9.85;8.95;;;;;;;;;;5032606;28;20072;-58
2023/09/12 14:05:00;;;;;;;9.27;8.57;;;;;;;;;;5032984;28;20373;-58
2023/09/12 14:07:26;;;;;;;9.82;9.02;;;;;;;;;;5032726;28;20490;-58
2023/09/12 14:09:55;;;;;;;9.68;8.65;;;;;;;;;;5032754;28;20026;-58
2023/09/12 14:12:22;;;;;;;9.73;8.73;;;;;;;;;;5014573;28;20490;-58
2023/09/12 14:14:48;;;;;;;11.65;8.80;;;;;;;;;;5032682;28;20060;-58
2023/09/12 14:17:14;;;;;;;9.70;8.80;;;;;;;;;;5032560;28;20033;-58
2023/09/12 14:19:40;;;;;;;9.63;8.70;;;;;;;;;;5032706;28;20024;-57
2023/09/12 14:22:06;;;;;;;10.02;8.75;;;;;;;;;;5032370;28;20057;-58
2023/09/12 14:24:32;;;;;;;9.55;8.65;;;;;;;;;;5014726;28;20025;-58